Time;durP1;ratioP1;P1;durP2;ratioP2;P2;SDS_P1;SDS_P2;PMS_P1;PMS_P2;Temp;Humidity;BMP_temperature;BMP_pressure;BME280_temperature;BME280_humidity;BME280_pressure;Samples;Min_cycle;Max_cycle;Signal;HPM_P1;HPM_P2
2023/09/01 00:00:47;;;;;;;8.90;4.57;;;;;;;15.41;89.59;100937.50;3606015;39;20115;-67
2023/09/01 00:03:13;;;;;;;10.38;4.72;;;;;;;15.17;90.19;100890.75;3603915;39;20059;-67
2023/09/01 00:05:39;;;;;;;9.82;5.30;;;;;;;15.40;90.18;100929.53;3605817;39;20089;-66
2023/09/01 00:08:06;;;;;;;10.27;5.00;;;;;;;15.39;90.24;100930.53;3604173;39;20063;-67
2023/09/01 00:10:35;;;;;;;11.75;4.97;;;;;;;15.33;90.31;100921.88;3606132;39;20067;-66
2023/09/01 00:13:02;;;;;;;9.00;4.97;;;;;;;15.36;89.92;100928.91;3606124;39;20043;-65
2023/09/01 00:15:28;;;;;;;7.97;4.70;;;;;;;15.34;90.00;100914.63;3605574;39;20057;-66
2023/09/01 00:17:53;;;;;;;12.95;5.20;;;;;;;15.34;90.27;100914.63;3601981;39;20062;-67
2023/09/01 00:20:19;;;;;;;10.10;4.28;;;;;;;15.35;89.72;100913.66;3606389;39;20062;-67
2023/09/01 00:22:45;;;;;;;9.52;4.65;;;;;;;15.30;90.13;100914.00;3611893;39;20423;-65
2023/09/01 00:25:10;;;;;;;6.82;4.03;;;;;;;15.29;90.68;100911.44;3607306;39;20792;-67
2023/09/01 00:27:36;;;;;;;10.27;4.57;;;;;;;15.32;89.84;100916.59;3603244;39;20047;-66
2023/09/01 00:30:02;;;;;;;9.02;4.30;;;;;;;15.28;89.16;100909.69;3597062;39;20051;-65
2023/09/01 00:32:28;;;;;;;8.50;4.22;;;;;;;15.30;90.34;100913.16;3607055;39;20489;-65
2023/09/01 00:34:57;;;;;;;7.72;4.50;;;;;;;15.26;90.46;100906.28;3605605;39;20063;-66
2023/09/01 00:37:26;;;;;;;7.75;4.25;;;;;;;15.27;90.14;100906.13;3608834;39;20043;-65
2023/09/01 00:39:51;;;;;;;9.80;4.35;;;;;;;15.15;90.22;100887.28;3603966;39;20507;-66
2023/09/01 00:42:17;;;;;;;11.30;4.20;;;;;;;15.27;89.98;100905.28;3604378;39;20059;-66
2023/09/01 00:44:43;;;;;;;8.65;4.30;;;;;;;15.27;89.99;100902.56;3605667;39;20123;-66
2023/09/01 00:47:09;;;;;;;7.68;4.10;;;;;;;15.14;89.84;100875.59;3609732;39;20051;-66
2023/09/01 00:49:38;;;;;;;10.50;4.20;;;;;;;15.24;88.92;100898.25;3602582;39;20063;-67
2023/09/01 00:52:04;;;;;;;7.85;3.97;;;;;;;15.17;89.67;100886.19;3604582;39;20051;-67
2023/09/01 00:54:31;;;;;;;11.55;4.57;;;;;;;15.25;89.25;100899.09;3603594;39;20087;-66
2023/09/01 00:56:57;;;;;;;8.70;4.18;;;;;;;15.21;89.32;100892.22;3605543;39;20048;-66
2023/09/01 00:59:23;;;;;;;7.75;4.35;;;;;;;15.27;89.69;100902.56;3606258;39;20058;-65
2023/09/01 01:01:51;;;;;;;7.07;4.28;;;;;;;15.23;89.60;100893.81;3605476;39;20052;-66
2023/09/01 01:04:20;;;;;;;9.38;4.40;;;;;;;15.26;89.25;100896.28;3608252;39;20407;-66
2023/09/01 01:06:56;;;;;;;10.82;4.30;;;;;;;15.24;89.29;100900.09;3605071;39;20177;-66
2023/09/01 01:09:54;;;;;;;6.70;4.15;;;;;;;15.22;89.83;100904.78;3603502;39;20057;-66
2023/09/01 01:13:05;;;;;;;9.65;4.30;;;;;;;15.22;90.84;100912.91;3605800;39;20048;-66
2023/09/01 01:15:35;;;;;;;7.35;4.13;;;;;;;15.24;90.61;100914.50;3598365;39;20062;-65
2023/09/01 01:18:10;;;;;;;7.25;4.35;;;;;;;15.28;89.92;100915.09;3602732;39;20048;-65
2023/09/01 01:20:42;;;;;;;6.95;3.90;;;;;;;15.28;89.56;100915.09;3604687;39;20410;-65
2023/09/01 01:23:10;;;;;;;7.30;4.18;;;;;;;15.28;89.32;100907.00;3603714;39;20086;-65
2023/09/01 01:25:44;;;;;;;7.57;3.75;;;;;;;15.28;89.39;100893.44;3604566;39;20302;-65
2023/09/01 01:28:09;;;;;;;8.32;4.03;;;;;;;15.28;88.80;100898.84;3602785;39;20055;-65
2023/09/01 01:30:37;;;;;;;12.15;8.32;;;;;;;15.20;89.36;100887.81;3604606;39;20139;-67
2023/09/01 01:33:06;;;;;;;9.85;5.03;;;;;;;15.28;89.17;100893.44;3603105;39;20385;-66
2023/09/01 01:36:04;;;;;;;9.43;5.13;;;;;;;15.30;88.69;100902.31;3603998;39;20048;-67
2023/09/01 01:38:35;;;;;;;9.23;3.88;;;;;;;15.29;89.00;100900.59;3605324;39;20087;-66
2023/09/01 01:41:18;;;;;;;8.18;4.82;;;;;;;15.28;89.07;100901.56;3605078;39;20063;-67
2023/09/01 01:43:49;;;;;;;7.73;4.97;;;;;;;15.31;88.78;100906.75;3602509;39;20060;-67
2023/09/01 01:46:15;;;;;;;8.90;4.78;;;;;;;15.29;89.66;100906.03;3607609;39;20054;-66
2023/09/01 01:48:41;;;;;;;8.20;5.00;;;;;;;15.33;89.94;100912.91;3606656;39;20047;-67
2023/09/01 01:51:06;;;;;;;10.10;4.93;;;;;;;15.32;89.63;100919.31;3604897;39;20058;-66
2023/09/01 01:53:35;;;;;;;7.28;4.38;;;;;;;15.31;90.03;100914.88;3603768;39;20066;-66
2023/09/01 01:56:03;;;;;;;7.50;5.05;;;;;;;15.14;90.66;100885.59;3606315;39;20066;-66
2023/09/01 01:58:29;;;;;;;9.90;6.05;;;;;;;15.38;90.09;100910.69;3609632;39;20082;-65
2023/09/01 02:00:55;;;;;;;9.00;6.00;;;;;;;15.40;90.51;100908.72;3605464;39;20063;-66
2023/09/01 02:03:21;;;;;;;13.32;7.75;;;;;;;15.42;89.61;100905.91;3603839;39;20113;-66
2023/09/01 02:05:47;;;;;;;11.25;5.72;;;;;;;15.44;89.00;100910.19;3604732;39;20070;-65
2023/09/01 02:08:12;;;;;;;9.93;6.10;;;;;;;15.46;88.96;100901.94;3606519;39;20063;-65
2023/09/01 02:10:38;;;;;;;9.02;5.55;;;;;;;15.46;89.47;100900.09;3606760;39;20062;-66
2023/09/01 02:13:04;;;;;;;12.50;6.72;;;;;;;15.33;88.87;100866.84;3604612;39;20125;-65
2023/09/01 02:15:31;;;;;;;9.20;5.30;;;;;;;15.48;89.22;100895.41;3605874;39;20416;-65
2023/09/01 02:17:57;;;;;;;11.23;5.57;;;;;;;15.50;89.54;100887.16;3603857;39;20512;-65
2023/09/01 02:20:24;;;;;;;13.07;7.40;;;;;;;15.48;89.53;100881.00;3605738;39;20051;-66
2023/09/01 02:22:52;;;;;;;10.50;5.25;;;;;;;15.46;88.83;100881.13;3604809;39;20057;-65
2023/09/01 02:25:18;;;;;;;11.30;5.35;;;;;;;15.54;89.53;100891.34;3605935;39;20147;-66
2023/09/01 02:27:44;;;;;;;9.25;5.47;;;;;;;15.56;89.33;100892.06;3605617;39;20714;-65
2023/09/01 02:30:12;;;;;;;9.43;5.72;;;;;;;15.54;89.11;100894.06;3604647;39;20119;-67
2023/09/01 02:32:39;;;;;;;10.10;5.90;;;;;;;15.58;89.78;100894.66;3604872;39;20047;-66
2023/09/01 02:35:08;;;;;;;15.20;6.53;;;;;;;15.58;89.27;100895.53;3605087;39;20047;-67
2023/09/01 02:37:34;;;;;;;10.07;5.10;;;;;;;15.54;89.56;100889.50;3604321;39;20062;-67
2023/09/01 02:40:00;;;;;;;8.98;4.95;;;;;;;15.59;89.30;100896.38;3604284;39;20059;-66
2023/09/01 02:42:26;;;;;;;8.07;4.75;;;;;;;15.58;89.04;100887.41;3593420;39;20110;-65
2023/09/01 02:44:53;;;;;;;7.65;4.57;;;;;;;15.58;88.67;100875.69;3604427;39;20143;-66
2023/09/01 02:47:19;;;;;;;8.40;4.78;;;;;;;15.54;89.29;100872.38;3603736;39;20048;-66
2023/09/01 02:49:45;;;;;;;10.18;5.18;;;;;;;15.35;89.69;100837.81;3601754;39;20066;-66
2023/09/01 02:52:11;;;;;;;7.30;4.72;;;;;;;15.53;90.58;100871.50;3602037;39;20893;-67
2023/09/01 02:54:36;;;;;;;10.27;4.97;;;;;;;15.54;89.62;100878.66;3604558;39;20058;-67
2023/09/01 02:57:04;;;;;;;10.45;5.15;;;;;;;15.51;89.38;100870.78;3603006;39;20069;-66
2023/09/01 02:59:29;;;;;;;9.05;4.82;;;;;;;15.49;90.21;100872.75;3597304;39;20039;-66
2023/09/01 03:01:55;;;;;;;7.20;4.43;;;;;;;15.52;90.29;100891.47;3603938;39;20051;-66
2023/09/01 03:04:20;;;;;;;9.35;4.78;;;;;;;15.52;90.57;100888.75;3602423;39;20279;-67
2023/09/01 03:06:46;;;;;;;7.78;4.45;;;;;;;15.51;90.72;100881.63;3605350;39;20078;-67
2023/09/01 03:09:12;;;;;;;8.07;4.70;;;;;;;15.51;91.04;100887.03;3602999;39;20055;-66
2023/09/01 03:11:38;;;;;;;7.53;4.47;;;;;;;15.50;90.83;100887.16;3603004;39;20051;-67
2023/09/01 03:14:04;;;;;;;7.32;4.70;;;;;;;15.50;90.20;100893.44;3604231;39;20126;-65
2023/09/01 03:16:30;;;;;;;9.05;4.72;;;;;;;15.51;90.94;100889.75;3605542;39;20060;-65
2023/09/01 03:18:59;;;;;;;6.95;4.32;;;;;;;15.52;91.21;100879.78;3604104;39;20047;-67
2023/09/01 03:21:30;;;;;;;9.05;5.00;;;;;;;15.53;91.17;100871.50;3602572;39;20047;-67
2023/09/01 03:23:57;;;;;;;7.88;4.68;;;;;;;15.46;91.29;100859.44;3601493;39;20055;-66
2023/09/01 03:26:23;;;;;;;8.23;4.50;;;;;;;15.55;91.65;100869.53;3604775;39;20043;-66
2023/09/01 03:28:50;;;;;;;7.43;4.70;;;;;;;15.33;91.43;100834.34;3601515;39;20063;-67
2023/09/01 03:31:16;;;;;;;10.30;4.93;;;;;;;15.61;92.13;100878.16;3606797;39;20484;-66
2023/09/01 03:33:43;;;;;;;10.77;4.85;;;;;;;15.62;90.70;100874.47;3604030;39;20062;-65
2023/09/01 03:36:09;;;;;;;8.57;4.97;;;;;;;15.63;91.01;100876.16;3605712;39;20066;-65
2023/09/01 03:38:36;;;;;;;8.02;4.32;;;;;;;15.63;90.81;100866.19;3606167;39;20067;-66
2023/09/01 03:41:04;;;;;;;5.63;4.15;;;;;;;15.68;90.49;100865.84;3607022;39;20051;-66
2023/09/01 03:43:30;;;;;;;11.05;5.13;;;;;;;15.73;90.80;100877.16;3604694;39;20377;-66
2023/09/01 03:45:57;;;;;;;11.23;6.28;;;;;;;15.71;89.90;100860.19;3595110;39;20067;-66
2023/09/01 03:48:24;;;;;;;7.65;5.20;;;;;;;15.72;90.02;100859.19;3607178;39;20058;-65
2023/09/01 03:51:10;;;;;;;7.85;4.63;;;;;;;15.71;89.76;100858.31;3602674;39;20047;-66
2023/09/01 03:53:38;;;;;;;7.85;4.55;;;;;;;15.74;90.81;100866.19;3606160;39;20059;-66
2023/09/01 03:56:15;;;;;;;7.43;4.55;;;;;;;15.75;90.24;100862.50;3608170;39;20378;-66
2023/09/01 03:58:41;;;;;;;10.57;5.20;;;;;;;15.78;90.20;100858.69;3604971;39;20050;-66
2023/09/01 04:01:08;;;;;;;6.97;4.72;;;;;;;15.77;89.83;100849.69;3604843;39;20210;-65
2023/09/01 04:03:44;;;;;;;7.47;4.85;;;;;;;15.80;90.35;100855.84;3605396;39;20047;-66
2023/09/01 04:06:11;;;;;;;7.72;4.72;;;;;;;15.57;90.75;100815.22;3603038;39;20056;-66
2023/09/01 04:08:37;;;;;;;7.15;4.70;;;;;;;15.64;90.30;100826.44;3607599;39;20081;-65
2023/09/01 04:11:03;;;;;;;9.82;5.20;;;;;;;15.79;90.05;100849.53;3606507;39;20386;-67
2023/09/01 04:13:34;;;;;;;5.60;4.43;;;;;;;15.83;90.40;100851.03;3603394;39;20309;-68
2023/09/01 04:16:01;;;;;;;7.88;4.60;;;;;;;15.83;89.93;100851.03;3606782;39;20140;-66
2023/09/01 04:18:27;;;;;;;8.25;4.60;;;;;;;15.78;89.77;100845.13;3607831;39;20043;-65
2023/09/01 04:20:55;;;;;;;8.15;5.32;;;;;;;15.83;89.84;100851.03;3605551;39;20063;-65
2023/09/01 04:23:21;;;;;;;8.77;5.05;;;;;;;15.83;90.32;100848.31;3597407;39;20087;-66
2023/09/01 04:25:48;;;;;;;8.75;5.25;;;;;;;15.39;90.60;100778.81;3604136;39;20071;-66
2023/09/01 04:28:15;;;;;;;10.00;5.32;;;;;;;15.85;90.52;100843.59;3604936;39;20051;-66
2023/09/01 04:30:43;;;;;;;7.53;4.72;;;;;;;15.88;89.67;100848.78;3606734;39;20298;-66
2023/09/01 04:33:09;;;;;;;9.52;4.78;;;;;;;15.90;89.67;100846.81;3605550;39;20120;-66
2023/09/01 04:35:35;;;;;;;7.32;4.72;;;;;;;15.85;89.80;100832.78;3604259;39;20298;-65
2023/09/01 04:38:01;;;;;;;7.18;4.93;;;;;;;15.90;89.70;100841.38;3607639;39;20121;-66
2023/09/01 04:40:27;;;;;;;7.13;4.78;;;;;;;15.91;89.88;100840.38;3606055;39;20414;-65
2023/09/01 04:42:53;;;;;;;8.20;4.88;;;;;;;15.93;89.91;100846.56;3604698;39;20509;-65
2023/09/01 04:45:18;;;;;;;9.32;5.10;;;;;;;15.92;90.26;100839.41;3606989;39;20095;-65
2023/09/01 04:47:44;;;;;;;9.88;5.18;;;;;;;15.93;90.43;100848.41;3605041;39;20444;-66
2023/09/01 04:50:10;;;;;;;7.45;4.75;;;;;;;15.92;90.49;100842.13;3609047;39;20046;-65
2023/09/01 04:52:36;;;;;;;8.27;4.70;;;;;;;15.84;90.03;100824.78;3606659;39;20132;-66
2023/09/01 04:55:04;;;;;;;9.38;5.13;;;;;;;15.96;90.80;100856.28;3605937;39;20049;-65
2023/09/01 04:57:30;;;;;;;10.15;4.80;;;;;;;15.97;90.17;100863.41;3603132;39;20055;-65
2023/09/01 04:59:57;;;;;;;7.57;4.35;;;;;;;15.90;90.41;100852.22;3603803;39;20050;-66
2023/09/01 05:02:23;;;;;;;7.32;4.93;;;;;;;16.01;90.53;100857.59;3607137;39;20058;-67
2023/09/01 05:04:49;;;;;;;7.68;5.03;;;;;;;16.02;90.43;100850.34;3603454;39;20055;-65
2023/09/01 05:07:15;;;;;;;7.47;4.80;;;;;;;16.04;91.04;100847.50;3607692;39;20169;-65
2023/09/01 05:09:41;;;;;;;9.27;5.00;;;;;;;16.05;90.90;100843.78;3595514;39;20061;-65
2023/09/01 05:12:07;;;;;;;8.77;4.68;;;;;;;15.28;90.72;100717.41;3608120;39;20293;-66
2023/09/01 05:14:32;;;;;;;8.23;4.60;;;;;;;16.10;90.95;100841.56;3603221;39;20128;-66
2023/09/01 05:16:58;;;;;;;7.22;4.63;;;;;;;16.12;90.16;100850.44;3609639;39;20059;-66
2023/09/01 05:19:24;;;;;;;6.22;5.28;;;;;;;16.09;91.07;100843.41;3606034;39;20047;-65
2023/09/01 05:21:49;;;;;;;6.75;4.95;;;;;;;16.17;90.79;100848.16;3606143;39;20059;-66
2023/09/01 05:24:15;;;;;;;6.65;4.47;;;;;;;16.16;90.37;100846.47;3606484;39;20401;-66
2023/09/01 05:26:41;;;;;;;6.43;4.88;;;;;;;15.76;90.74;100785.63;3604707;39;20069;-66
2023/09/01 05:29:06;;;;;;;8.55;5.72;;;;;;;16.19;90.73;100863.31;3605277;39;20055;-65
2023/09/01 05:31:32;;;;;;;8.55;5.07;;;;;;;16.23;91.16;100863.91;3609483;39;20389;-65
2023/09/01 05:33:58;;;;;;;9.60;5.25;;;;;;;16.23;91.17;100859.34;3603982;39;20066;-65
2023/09/01 05:36:23;;;;;;;11.85;5.80;;;;;;;16.24;90.40;100866.53;3603919;39;20401;-65
2023/09/01 05:38:49;;;;;;;6.80;5.32;;;;;;;16.27;90.20;100870.84;3604026;39;20062;-65
2023/09/01 05:41:15;;;;;;;10.55;5.80;;;;;;;16.19;90.43;100846.19;3605793;39;20290;-66
2023/09/01 05:43:40;;;;;;;9.68;5.80;;;;;;;16.29;90.18;100857.97;3604381;39;20047;-66
2023/09/01 05:46:06;;;;;;;8.18;6.00;;;;;;;16.31;90.75;100860.56;3608104;39;20055;-65
2023/09/01 05:48:31;;;;;;;10.32;6.07;;;;;;;16.32;90.03;100868.56;3597146;39;20075;-65
2023/09/01 05:50:57;;;;;;;7.05;5.80;;;;;;;16.33;89.72;100866.72;3606030;39;20412;-67
2023/09/01 05:53:23;;;;;;;8.63;5.93;;;;;;;16.32;90.15;100863.13;3606290;39;20058;-65
2023/09/01 05:55:48;;;;;;;9.15;5.80;;;;;;;16.38;91.60;100865.34;3608004;39;20059;-67
2023/09/01 05:58:14;;;;;;;8.13;6.40;;;;;;;16.39;91.44;100858.91;3605426;39;20313;-66
2023/09/01 06:00:40;;;;;;;10.07;6.00;;;;;;;16.40;90.84;100854.38;3602995;39;20386;-66
2023/09/01 06:03:06;;;;;;;6.30;5.55;;;;;;;16.40;90.71;100854.38;3605090;39;20401;-67
2023/09/01 06:05:32;;;;;;;10.63;6.07;;;;;;;16.34;90.73;100844.03;3605508;39;20066;-67
2023/09/01 06:07:57;;;;;;;11.18;6.38;;;;;;;15.50;nan;100697.50;3609530;39;20045;-65
2023/09/01 06:10:23;;;;;;;8.20;6.10;;;;;;;16.49;91.41;100864.41;3606388;39;20054;-65
2023/09/01 06:12:48;;;;;;;9.57;6.00;;;;;;;16.51;90.91;100861.56;3604843;39;20055;-66
2023/09/01 06:15:14;;;;;;;10.77;6.57;;;;;;;16.52;91.32;100849.72;3608457;39;20051;-67
2023/09/01 06:17:40;;;;;;;9.93;6.40;;;;;;;16.51;91.73;100848.84;3607793;39;20062;-66
2023/09/01 06:20:07;;;;;;;10.30;7.28;;;;;;;16.50;91.70;100858.00;3605795;39;20043;-66
2023/09/01 06:22:33;;;;;;;10.93;6.72;;;;;;;16.51;91.40;100867.00;3601844;39;20051;-67
2023/09/01 06:24:59;;;;;;;14.25;7.53;;;;;;;16.52;91.92;100871.41;3607405;39;20054;-66
2023/09/01 06:27:25;;;;;;;10.07;6.32;;;;;;;16.54;92.31;100873.00;3604090;39;20098;-66
2023/09/01 06:29:50;;;;;;;11.65;7.35;;;;;;;16.56;91.35;100875.63;3603763;39;20124;-66
2023/09/01 06:32:16;;;;;;;9.60;6.90;;;;;;;16.59;92.41;100872.63;3604541;39;20406;-67
2023/09/01 06:34:42;;;;;;;11.52;7.47;;;;;;;16.59;92.17;100870.78;3603170;39;20059;-67
2023/09/01 06:37:08;;;;;;;11.80;7.60;;;;;;;16.62;92.02;100873.22;3608715;39;20058;-67
2023/09/01 06:39:34;;;;;;;11.82;7.50;;;;;;;16.64;91.82;100875.78;3601897;39;20301;-66
2023/09/01 06:41:59;;;;;;;13.50;8.02;;;;;;;16.63;91.89;100868.66;3605784;39;20062;-66
2023/09/01 06:44:25;;;;;;;13.88;7.88;;;;;;;16.63;91.58;100877.66;3603649;39;20062;-67
2023/09/01 06:46:50;;;;;;;12.15;7.65;;;;;;;16.70;91.95;100877.97;3603592;39;20059;-67
2023/09/01 06:49:16;;;;;;;11.00;7.90;;;;;;;16.73;92.50;100879.56;3603231;39;20127;-66
2023/09/01 06:51:42;;;;;;;11.20;8.20;;;;;;;16.74;92.59;100884.00;3602214;39;20075;-67
2023/09/01 06:54:08;;;;;;;15.65;8.68;;;;;;;16.79;92.76;100881.78;3605035;39;20051;-66
2023/09/01 06:56:34;;;;;;;12.82;8.52;;;;;;;16.78;93.60;100878.22;3607741;39;20302;-67
2023/09/01 06:58:59;;;;;;;12.40;8.45;;;;;;;16.80;93.76;100873.50;3604987;39;20067;-66
2023/09/01 07:01:27;;;;;;;12.93;9.00;;;;;;;16.81;92.66;100877.94;3605061;39;20054;-65
2023/09/01 07:03:54;;;;;;;12.30;8.98;;;;;;;16.81;93.17;100875.22;3603708;39;20097;-67
2023/09/01 07:06:20;;;;;;;14.68;8.77;;;;;;;16.67;93.57;100842.94;3603229;39;20051;-65
2023/09/01 07:08:46;;;;;;;12.75;9.27;;;;;;;16.80;94.46;100861.78;3602716;39;20077;-66
2023/09/01 07:11:14;;;;;;;13.43;9.15;;;;;;;16.78;94.62;100859.22;3602229;39;20070;-66
2023/09/01 07:13:40;;;;;;;12.95;8.98;;;;;;;16.76;94.44;100854.91;3606845;39;20062;-66
2023/09/01 07:16:06;;;;;;;13.02;8.95;;;;;;;16.70;95.42;100845.41;3603668;39;20067;-65
2023/09/01 07:18:32;;;;;;;15.45;9.55;;;;;;;16.70;95.90;100851.69;3602785;39;20581;-66
2023/09/01 07:21:00;;;;;;;13.35;10.15;;;;;;;16.65;96.04;100845.81;3605185;39;20066;-65
2023/09/01 07:23:27;;;;;;;13.00;9.82;;;;;;;16.66;96.72;100846.66;3602078;39;20051;-67
2023/09/01 07:25:53;;;;;;;13.32;9.90;;;;;;;16.69;97.04;100852.69;3603812;39;20375;-65
2023/09/01 07:28:20;;;;;;;14.93;10.18;;;;;;;16.70;97.66;100856.25;3603421;39;20047;-65
2023/09/01 07:30:47;;;;;;;11.80;9.63;;;;;;;16.77;98.30;100862.91;3603487;39;20135;-66
2023/09/01 07:33:12;;;;;;;14.52;10.10;;;;;;;16.76;98.25;100855.75;3604575;39;20043;-65
2023/09/01 07:35:38;;;;;;;16.85;10.55;;;;;;;16.79;97.75;100851.91;3604072;39;20051;-66
2023/09/01 07:38:04;;;;;;;15.00;10.93;;;;;;;16.79;97.98;100855.50;3603432;39;20066;-66
2023/09/01 07:40:32;;;;;;;13.25;10.45;;;;;;;16.74;98.68;100838.69;3605942;39;20402;-65
2023/09/01 07:43:00;;;;;;;14.80;10.77;;;;;;;16.80;98.10;100850.91;3603394;39;20067;-66
2023/09/01 07:45:27;;;;;;;13.45;10.25;;;;;;;16.82;99.27;100855.22;3603677;39;20128;-65
2023/09/01 07:47:53;;;;;;;15.60;11.00;;;;;;;16.81;98.47;100856.22;3602380;39;20055;-65
2023/09/01 07:50:19;;;;;;;11.98;9.68;;;;;;;16.78;98.59;100853.78;3601285;39;20043;-64
2023/09/01 07:52:44;;;;;;;13.68;11.05;;;;;;;16.80;98.90;100862.63;3601894;39;20128;-65
2023/09/01 07:55:11;;;;;;;15.93;11.70;;;;;;;16.82;98.90;100854.38;3600868;39;20235;-65
2023/09/01 07:57:36;;;;;;;13.88;10.75;;;;;;;16.84;99.42;100853.25;3603112;39;20070;-67
2023/09/01 08:00:07;;;;;;;14.05;11.00;;;;;;;16.83;99.51;100856.09;3602957;39;20063;-64
2023/09/01 08:02:34;;;;;;;13.30;10.45;;;;;;;16.84;99.48;100864.09;3604050;39;20047;-66
2023/09/01 08:05:03;;;;;;;12.75;10.48;;;;;;;16.68;99.33;100841.94;3605283;39;20047;-67
2023/09/01 08:07:30;;;;;;;12.07;10.50;;;;;;;16.86;99.53;100856.66;3602955;39;20047;-66
2023/09/01 08:09:57;;;;;;;15.98;11.10;;;;;;;16.84;100.00;100861.38;3595578;39;20071;-66
2023/09/01 08:12:23;;;;;;;11.55;10.30;;;;;;;16.89;99.99;100867.25;3604324;39;20059;-66
2023/09/01 08:14:48;;;;;;;14.70;11.10;;;;;;;16.92;100.00;100872.41;3602603;39;20058;-65
2023/09/01 08:17:14;;;;;;;13.80;11.10;;;;;;;16.93;100.00;100876.00;3605724;39;20510;-65
2023/09/01 08:19:40;;;;;;;14.23;11.23;;;;;;;16.94;100.00;100877.72;3603483;39;20084;-65
2023/09/01 08:22:07;;;;;;;13.02;11.18;;;;;;;16.93;99.91;100874.13;3607881;39;20600;-65
2023/09/01 08:24:32;;;;;;;12.43;10.93;;;;;;;16.96;100.00;100883.00;3605473;39;20047;-66
2023/09/01 08:26:58;;;;;;;12.63;11.20;;;;;;;16.96;99.95;100889.31;3605822;39;20062;-65
2023/09/01 08:29:23;;;;;;;12.38;10.65;;;;;;;16.98;99.77;100889.19;3603583;39;20051;-65
2023/09/01 08:31:49;;;;;;;13.30;10.88;;;;;;;16.96;100.00;100888.44;3604714;39;20066;-65
2023/09/01 08:34:15;;;;;;;14.50;11.45;;;;;;;16.97;100.00;100891.03;3606122;39;20308;-65
2023/09/01 08:36:43;;;;;;;11.75;10.02;;;;;;;16.98;100.00;100889.19;3601854;39;20384;-65
2023/09/01 08:39:09;;;;;;;13.10;10.20;;;;;;;16.98;100.00;100887.31;3604221;39;20469;-66
2023/09/01 08:41:40;;;;;;;11.73;10.43;;;;;;;16.99;100.00;100899.03;3604582;39;20058;-65
2023/09/01 08:44:09;;;;;;;11.05;10.02;;;;;;;16.97;100.00;100896.47;3602577;39;20073;-65
2023/09/01 08:46:36;;;;;;;11.18;9.73;;;;;;;17.00;100.00;100904.34;3606547;39;20477;-66
2023/09/01 08:49:04;;;;;;;11.63;10.43;;;;;;;17.03;100.00;100912.22;3604461;39;20323;-65
2023/09/01 08:51:31;;;;;;;11.20;9.95;;;;;;;17.02;100.00;100917.78;3605584;39;20057;-66
2023/09/01 08:53:57;;;;;;;11.05;9.95;;;;;;;17.04;100.00;100916.66;3606109;39;20052;-65
2023/09/01 08:56:23;;;;;;;11.40;10.30;;;;;;;17.05;100.00;100922.94;3605033;39;20120;-64
2023/09/01 08:58:49;;;;;;;10.48;9.45;;;;;;;17.05;100.00;100912.09;3603106;39;20341;-64
2023/09/01 09:01:16;;;;;;;11.00;9.90;;;;;;;17.05;100.00;100915.66;3607118;39;20159;-64
2023/09/01 09:03:42;;;;;;;11.68;10.60;;;;;;;17.06;100.00;100913.78;3606869;39;20051;-65
2023/09/01 09:06:13;;;;;;;12.25;10.90;;;;;;;17.05;100.00;100915.66;3607214;39;20063;-65
2023/09/01 09:08:39;;;;;;;12.35;10.77;;;;;;;17.08;100.00;100919.97;3605663;39;20058;-65
2023/09/01 09:11:15;;;;;;;11.88;10.68;;;;;;;17.08;100.00;100918.09;3605054;39;20051;-66
2023/09/01 09:13:41;;;;;;;11.05;9.95;;;;;;;17.06;100.00;100917.41;3606906;39;20164;-64
2023/09/01 09:16:16;;;;;;;10.90;9.88;;;;;;;17.08;100.00;100922.69;3604621;39;20063;-65
2023/09/01 09:18:45;;;;;;;10.35;9.35;;;;;;;17.09;100.00;100917.09;3593155;39;20051;-65
2023/09/01 09:21:25;;;;;;;9.38;8.43;;;;;;;17.06;100.00;100916.50;3597168;39;20052;-64
2023/09/01 09:23:54;;;;;;;9.68;8.63;;;;;;;17.04;100.00;100922.09;3603718;39;20152;-64
2023/09/01 09:26:28;;;;;;;9.80;8.80;;;;;;;17.07;100.00;100923.69;3604849;39;20055;-63
2023/09/01 09:28:55;;;;;;;8.55;7.80;;;;;;;17.06;100.00;100927.38;3606402;39;20360;-64
2023/09/01 09:31:33;;;;;;;8.48;7.68;;;;;;;17.03;100.00;100941.22;3607097;39;20047;-64
2023/09/01 09:34:15;;;;;;;8.80;8.00;;;;;;;16.97;100.00;100920.91;3604010;39;20055;-65
2023/09/01 09:36:42;;;;;;;8.32;7.53;;;;;;;17.01;100.00;100929.66;3606129;39;20062;-65
2023/09/01 09:39:24;;;;;;;9.38;8.45;;;;;;;17.05;100.00;100931.09;3605447;39;20055;-65
2023/09/01 09:41:50;;;;;;;8.25;7.45;;;;;;;17.08;100.00;100930.81;3605830;39;20438;-65
2023/09/01 09:44:33;;;;;;;8.23;7.50;;;;;;;17.08;100.00;100931.69;3593379;39;20058;-64
2023/09/01 09:47:12;;;;;;;7.55;6.85;;;;;;;17.12;100.00;100930.41;3605588;39;20043;-64
2023/09/01 09:49:39;;;;;;;7.28;6.63;;;;;;;17.17;100.00;100930.03;3602151;39;20044;-64
2023/09/01 09:52:09;;;;;;;7.05;6.10;;;;;;;17.17;100.00;100932.75;3602683;39;20062;-64
2023/09/01 09:54:38;;;;;;;5.78;5.32;;;;;;;17.16;100.00;100925.59;3604251;39;20124;-65
2023/09/01 09:57:14;;;;;;;5.68;5.25;;;;;;;17.22;100.00;100933.22;3603673;39;20048;-65
2023/09/01 09:59:53;;;;;;;6.35;5.80;;;;;;;17.30;100.00;100935.22;3605375;39;20069;-64
2023/09/01 10:03:00;;;;;;;6.68;6.07;;;;;;;17.33;100.00;100935.81;3594927;39;20461;-65
2023/09/01 10:05:33;;;;;;;7.20;6.50;;;;;;;17.33;100.00;100927.66;3604786;39;20047;-64
2023/09/01 10:08:06;;;;;;;7.80;6.95;;;;;;;17.37;100.00;100923.66;3603071;39;20079;-64
2023/09/01 10:10:34;;;;;;;7.32;6.63;;;;;;;16.89;100.00;100831.97;3605127;39;20052;-65
2023/09/01 10:13:07;;;;;;;7.10;6.40;;;;;;;17.38;100.00;100910.97;3606424;39;20690;-64
2023/09/01 10:15:35;;;;;;;6.95;5.78;;;;;;;17.40;100.00;100914.41;3605067;39;20087;-64
2023/09/01 10:18:04;;;;;;;5.40;5.00;;;;;;;17.39;100.00;100908.09;3605508;39;20330;-65
2023/09/01 10:20:35;;;;;;;5.45;5.03;;;;;;;17.42;100.00;100914.28;3602636;39;20153;-64
2023/09/01 10:23:04;;;;;;;5.50;4.82;;;;;;;17.44;100.00;100914.97;3601584;39;20436;-64
2023/09/01 10:25:31;;;;;;;5.05;4.55;;;;;;;17.44;100.00;100921.25;3590410;39;20047;-65
2023/09/01 10:28:12;;;;;;;5.00;4.57;;;;;;;17.48;100.00;100927.31;3604552;39;20055;-64
2023/09/01 10:30:46;;;;;;;5.13;4.72;;;;;;;17.53;100.00;100919.59;3607670;39;20079;-64
2023/09/01 10:33:26;;;;;;;5.93;5.05;;;;;;;17.53;100.00;100925.03;3597387;39;20441;-64
2023/09/01 10:35:55;;;;;;;6.32;4.68;;;;;;;17.55;100.00;100925.75;3604893;39;20042;-64
2023/09/01 10:38:41;;;;;;;7.60;5.72;;;;;;;17.65;100.00;100929.38;3604634;39;20071;-64
2023/09/01 10:41:06;;;;;;;5.68;5.18;;;;;;;17.73;100.00;100932.25;3602748;39;20367;-64
2023/09/01 10:43:35;;;;;;;5.93;5.43;;;;;;;17.81;100.00;100934.31;3604259;39;20296;-64
2023/09/01 10:46:25;;;;;;;5.80;5.20;;;;;;;17.89;100.00;100933.59;3602049;39;20063;-64
2023/09/01 10:48:58;;;;;;;5.00;4.55;;;;;;;17.99;100.00;100937.22;3597254;39;20054;-66
2023/09/01 10:51:34;;;;;;;;;;;;;;;18.06;100.00;100951.97;3607014;39;20124;-66
2023/09/01 10:54:20;;;;;;;4.20;3.90;;;;;;;18.17;100.00;100951.84;3601581;39;20206;-65
2023/09/01 10:56:59;;;;;;;4.60;4.20;;;;;;;18.29;100.00;100950.72;3603716;39;20145;-65
2023/09/01 10:59:34;;;;;;;4.22;3.92;;;;;;;18.38;100.00;100953.59;3602959;39;20063;-66
2023/09/01 11:02:21;;;;;;;6.38;3.97;;;;;;;18.42;100.00;100952.28;3605390;39;20058;-65
2023/09/01 11:04:47;;;;;;;4.43;4.03;;;;;;;18.43;100.00;100948.59;3591578;39;20418;-66
2023/09/01 11:07:14;;;;;;;3.90;3.60;;;;;;;18.48;100.00;100949.00;3602614;39;20051;-66
2023/09/01 11:09:39;;;;;;;3.53;3.33;;;;;;;18.53;100.00;100952.16;3601721;39;20123;-66
2023/09/01 11:12:08;;;;;;;2.92;2.72;;;;;;;18.59;97.66;100950.75;3601522;39;20063;-66
2023/09/01 11:14:52;;;;;;;3.20;3.00;;;;;;;18.65;98.08;100939.25;3601203;39;20053;-66
2023/09/01 11:17:37;;;;;;;;;;;;;;;18.75;99.05;100941.00;3605515;39;20132;-66
2023/09/01 11:20:05;;;;;;;3.83;3.53;;;;;;;18.88;98.43;100945.28;3601784;39;19934;-65
2023/09/01 11:22:31;;;;;;;3.30;3.10;;;;;;;19.00;100.00;100941.41;3603608;39;20051;-67
2023/09/01 11:24:56;;;;;;;3.20;3.00;;;;;;;19.16;100.00;100946.25;3601997;39;20065;-64